Time;durP1;ratioP1;P1;durP2;ratioP2;P2;SDS_P1;SDS_P2;PMS_P1;PMS_P2;Temp;Humidity;BMP_temperature;BMP_pressure;BME280_temperature;BME280_humidity;BME280_pressure;Samples;Min_cycle;Max_cycle;Signal;HPM_P1;HPM_P2
2022/09/03 00:00:24;;;;;;;1.60;0.40;;;;;;;;;;5123345;27;21063;-60
2022/09/03 00:03:18;;;;;;;0.30;0.30;;;;;;;;;;5116376;27;20255;-59
2022/09/03 00:06:16;;;;;;;0.57;0.57;;;;;;;;;;5117582;27;20284;-59
2022/09/03 00:09:09;;;;;;;0.50;0.50;;;;;;;;;;5119798;27;20231;-59
2022/09/03 00:12:03;;;;;;;0.50;0.50;;;;;;;;;;5115454;27;20210;-59
2022/09/03 00:14:54;;;;;;;0.33;0.33;;;;;;;;;;5117243;27;20200;-59
2022/09/03 00:17:44;;;;;;;0.50;0.50;;;;;;;;;;5114731;27;20679;-59
2022/09/03 00:20:35;;;;;;;0.27;0.27;;;;;;;;;;5122368;27;20263;-59
2022/09/03 00:23:24;;;;;;;0.40;0.40;;;;;;;;;;5114393;27;20208;-59
2022/09/03 00:26:25;;;;;;;0.33;0.33;;;;;;;;;;5123480;27;20211;-60
2022/09/03 00:29:17;;;;;;;0.40;0.40;;;;;;;;;;5117186;27;20255;-59
2022/09/03 00:32:10;;;;;;;0.50;0.50;;;;;;;;;;5118103;27;20293;-59
2022/09/03 00:35:02;;;;;;;0.40;0.40;;;;;;;;;;5114295;28;20334;-59
2022/09/03 00:37:51;;;;;;;0.30;0.30;;;;;;;;;;5118424;28;20252;-59
2022/09/03 00:40:56;;;;;;;0.40;0.40;;;;;;;;;;5114833;28;20211;-59
2022/09/03 00:43:58;;;;;;;0.43;0.43;;;;;;;;;;5116291;28;20268;-59
2022/09/03 00:46:52;;;;;;;0.40;0.40;;;;;;;;;;5117463;28;20206;-59
2022/09/03 00:49:53;;;;;;;0.50;0.50;;;;;;;;;;5112150;28;20671;-59
2022/09/03 00:52:49;;;;;;;0.40;0.40;;;;;;;;;;5118874;28;20209;-60
2022/09/03 00:55:46;;;;;;;0.50;0.50;;;;;;;;;;5116680;28;20227;-60
2022/09/03 00:58:47;;;;;;;0.40;0.40;;;;;;;;;;5117962;28;20214;-59
2022/09/03 01:01:40;;;;;;;0.40;0.40;;;;;;;;;;5118978;28;20258;-59
2022/09/03 01:04:43;;;;;;;0.40;0.40;;;;;;;;;;5121378;28;20203;-59
2022/09/03 01:07:40;;;;;;;0.40;0.40;;;;;;;;;;5114986;28;20234;-59
2022/09/03 01:10:37;;;;;;;0.37;0.37;;;;;;;;;;5123414;28;20576;-60
2022/09/03 01:13:30;;;;;;;0.40;0.40;;;;;;;;;;5118129;28;20250;-58
2022/09/03 01:16:25;;;;;;;0.50;0.50;;;;;;;;;;5117245;28;20255;-59
2022/09/03 01:19:35;;;;;;;0.47;0.47;;;;;;;;;;5116397;28;20207;-59
2022/09/03 01:22:48;;;;;;;0.30;0.30;;;;;;;;;;5120146;28;20239;-59
2022/09/03 01:25:50;;;;;;;0.30;0.30;;;;;;;;;;5116672;28;20208;-60
2022/09/03 01:28:49;;;;;;;0.47;0.47;;;;;;;;;;5120250;28;20207;-59
2022/09/03 01:31:46;;;;;;;0.40;0.40;;;;;;;;;;5116012;28;20593;-59
2022/09/03 01:34:46;;;;;;;0.40;0.40;;;;;;;;;;5106004;28;20693;-59
2022/09/03 01:37:42;;;;;;;0.40;0.40;;;;;;;;;;5108835;28;20231;-59
2022/09/03 01:40:38;;;;;;;0.27;0.27;;;;;;;;;;5108919;28;20211;-59
2022/09/03 01:43:39;;;;;;;0.50;0.50;;;;;;;;;;5109906;28;20203;-59
2022/09/03 01:46:37;;;;;;;0.47;0.47;;;;;;;;;;5111065;28;20207;-59
2022/09/03 01:49:31;;;;;;;0.40;0.40;;;;;;;;;;5112388;28;20310;-59
2022/09/03 01:52:34;;;;;;;0.60;0.47;;;;;;;;;;5110141;28;20214;-59
2022/09/03 01:55:32;;;;;;;0.20;0.20;;;;;;;;;;5110813;28;20210;-59
2022/09/03 01:58:23;;;;;;;0.40;0.40;;;;;;;;;;5109713;28;20200;-59
2022/09/03 02:01:16;;;;;;;0.50;0.50;;;;;;;;;;5112033;28;20231;-60
2022/09/03 02:04:16;;;;;;;0.57;0.57;;;;;;;;;;5101027;28;20978;-60
2022/09/03 02:07:04;;;;;;;0.40;0.40;;;;;;;;;;5109980;28;20310;-60
2022/09/03 02:09:51;;;;;;;0.40;0.40;;;;;;;;;;5110497;28;20243;-60
2022/09/03 02:12:41;;;;;;;0.30;0.30;;;;;;;;;;5110832;28;20204;-59
2022/09/03 02:15:30;;;;;;;0.40;0.40;;;;;;;;;;5109191;28;20345;-59
2022/09/03 02:18:20;;;;;;;0.30;0.30;;;;;;;;;;5110281;28;20208;-59
2022/09/03 02:21:09;;;;;;;0.40;0.40;;;;;;;;;;5104217;28;20209;-59
2022/09/03 02:23:56;;;;;;;0.40;0.40;;;;;;;;;;5110043;28;20202;-59
2022/09/03 02:26:43;;;;;;;0.30;0.30;;;;;;;;;;5105391;28;20200;-59
2022/09/03 02:29:31;;;;;;;0.30;0.30;;;;;;;;;;5105281;28;20208;-60
2022/09/03 02:32:18;;;;;;;0.40;0.40;;;;;;;;;;5104925;27;20216;-59
2022/09/03 02:35:06;;;;;;;0.40;0.40;;;;;;;;;;5120478;27;20574;-59
2022/09/03 02:37:54;;;;;;;0.30;0.30;;;;;;;;;;5114424;27;20232;-59
2022/09/03 02:40:41;;;;;;;0.30;0.30;;;;;;;;;;5120596;27;20664;-59
2022/09/03 02:43:41;;;;;;;0.40;0.40;;;;;;;;;;5121487;27;20693;-60
2022/09/03 02:46:35;;;;;;;0.30;0.30;;;;;;;;;;5117898;27;20352;-58
2022/09/03 02:49:22;;;;;;;0.30;0.30;;;;;;;;;;5116214;27;20290;-60
2022/09/03 02:52:11;;;;;;;0.37;0.37;;;;;;;;;;5116852;27;20211;-60
2022/09/03 02:54:59;;;;;;;0.30;0.30;;;;;;;;;;5120189;27;20581;-60
2022/09/03 02:57:46;;;;;;;0.30;0.30;;;;;;;;;;5123228;27;20695;-59
2022/09/03 03:00:34;;;;;;;0.20;0.20;;;;;;;;;;5116949;27;20523;-60
2022/09/03 03:03:21;;;;;;;0.30;0.30;;;;;;;;;;5119250;27;20670;-59
2022/09/03 03:06:09;;;;;;;1.13;0.30;;;;;;;;;;5109673;27;20244;-58
2022/09/03 03:08:56;;;;;;;0.37;0.37;;;;;;;;;;5124352;27;20563;-59
2022/09/03 03:11:45;;;;;;;0.97;0.40;;;;;;;;;;5120239;27;20204;-60
2022/09/03 03:14:32;;;;;;;0.30;0.30;;;;;;;;;;5122210;27;20320;-59
2022/09/03 03:17:19;;;;;;;0.40;0.37;;;;;;;;;;5117863;27;20635;-59
2022/09/03 03:20:07;;;;;;;0.50;0.50;;;;;;;;;;5121195;27;20233;-59
2022/09/03 03:22:54;;;;;;;0.50;0.50;;;;;;;;;;5115375;27;20215;-59
2022/09/03 03:25:41;;;;;;;0.27;0.27;;;;;;;;;;5114704;27;20253;-59
2022/09/03 03:28:33;;;;;;;0.20;0.20;;;;;;;;;;5115949;27;20346;-60
2022/09/03 03:31:21;;;;;;;0.37;0.37;;;;;;;;;;5112912;27;20213;-59
2022/09/03 03:34:08;;;;;;;0.40;0.40;;;;;;;;;;5117259;27;20235;-59
2022/09/03 03:36:55;;;;;;;0.40;0.40;;;;;;;;;;5117024;27;20223;-59
2022/09/03 03:39:42;;;;;;;0.23;0.23;;;;;;;;;;5121335;27;20339;-59
2022/09/03 03:42:29;;;;;;;0.30;0.30;;;;;;;;;;5118835;27;20262;-59
2022/09/03 03:45:17;;;;;;;0.63;0.30;;;;;;;;;;5114334;27;20735;-59
2022/09/03 03:48:05;;;;;;;0.30;0.30;;;;;;;;;;5119375;27;20219;-59
2022/09/03 03:50:52;;;;;;;0.40;0.40;;;;;;;;;;5117858;27;20211;-59
2022/09/03 03:53:39;;;;;;;0.30;0.30;;;;;;;;;;5115360;27;20208;-60
2022/09/03 03:56:27;;;;;;;0.30;0.30;;;;;;;;;;5115940;27;20221;-60
2022/09/03 03:59:14;;;;;;;0.27;0.27;;;;;;;;;;5116047;27;20758;-60
2022/09/03 04:02:02;;;;;;;0.30;0.30;;;;;;;;;;5113967;27;20214;-59
2022/09/03 04:04:49;;;;;;;0.40;0.40;;;;;;;;;;5120558;27;20628;-60
2022/09/03 04:07:36;;;;;;;0.30;0.30;;;;;;;;;;5124623;27;20209;-59
2022/09/03 04:10:23;;;;;;;0.30;0.30;;;;;;;;;;5122361;27;20596;-59
2022/09/03 04:13:12;;;;;;;0.40;0.40;;;;;;;;;;5121473;27;20663;-59
2022/09/03 04:16:03;;;;;;;0.63;0.40;;;;;;;;;;5115029;27;20793;-60
2022/09/03 04:18:52;;;;;;;0.30;0.30;;;;;;;;;;5116589;27;20244;-59
2022/09/03 04:21:39;;;;;;;0.30;0.30;;;;;;;;;;5117699;27;20297;-60
2022/09/03 04:24:27;;;;;;;0.30;0.30;;;;;;;;;;5118856;27;20203;-59
2022/09/03 04:27:14;;;;;;;0.40;0.40;;;;;;;;;;5120464;28;20199;-59
2022/09/03 04:30:01;;;;;;;0.30;0.30;;;;;;;;;;5120461;27;20204;-59
2022/09/03 04:32:55;;;;;;;0.40;0.40;;;;;;;;;;5120877;27;20748;-59
2022/09/03 04:35:44;;;;;;;0.30;0.30;;;;;;;;;;5119982;28;20228;-59
2022/09/03 04:38:31;;;;;;;0.30;0.30;;;;;;;;;;5121508;28;20230;-59
2022/09/03 04:41:20;;;;;;;0.20;0.20;;;;;;;;;;5118518;28;20203;-59
2022/09/03 04:44:07;;;;;;;0.23;0.23;;;;;;;;;;5114909;28;20215;-59
2022/09/03 04:46:54;;;;;;;0.30;0.30;;;;;;;;;;5117136;28;20294;-58
2022/09/03 04:49:41;;;;;;;0.33;0.33;;;;;;;;;;5118185;28;20232;-60
2022/09/03 04:52:30;;;;;;;0.40;0.40;;;;;;;;;;5114667;28;20222;-60
2022/09/03 04:55:18;;;;;;;0.30;0.30;;;;;;;;;;5122953;28;20210;-59
2022/09/03 04:58:06;;;;;;;0.27;0.27;;;;;;;;;;5114538;28;20249;-59
2022/09/03 05:00:53;;;;;;;0.20;0.20;;;;;;;;;;5118720;28;20204;-59
2022/09/03 05:03:40;;;;;;;0.40;0.40;;;;;;;;;;5116619;28;20204;-59
2022/09/03 05:06:29;;;;;;;0.27;0.27;;;;;;;;;;5116762;28;20231;-59
2022/09/03 05:09:17;;;;;;;0.40;0.40;;;;;;;;;;5113752;28;20291;-59
2022/09/03 05:12:05;;;;;;;0.23;0.23;;;;;;;;;;5116335;28;20212;-58
2022/09/03 05:14:52;;;;;;;0.50;0.50;;;;;;;;;;5116426;27;20215;-59
2022/09/03 05:17:39;;;;;;;0.47;0.47;;;;;;;;;;5123372;27;20637;-59
2022/09/03 05:20:27;;;;;;;0.30;0.30;;;;;;;;;;5123310;27;20236;-59
2022/09/03 05:23:14;;;;;;;0.30;0.30;;;;;;;;;;5119385;27;20228;-59
2022/09/03 05:26:07;;;;;;;0.40;0.40;;;;;;;;;;5126095;27;20204;-58
2022/09/03 05:28:56;;;;;;;0.30;0.30;;;;;;;;;;5123137;27;20595;-59
2022/09/03 05:31:43;;;;;;;0.30;0.30;;;;;;;;;;5118927;27;20662;-59
2022/09/03 05:34:31;;;;;;;0.50;0.47;;;;;;;;;;5117255;27;20337;-58
2022/09/03 05:37:18;;;;;;;0.30;0.30;;;;;;;;;;5124893;27;20228;-60
2022/09/03 05:40:10;;;;;;;0.30;0.30;;;;;;;;;;5121297;27;20212;-59
2022/09/03 05:42:58;;;;;;;0.40;0.40;;;;;;;;;;5119030;27;20205;-59
2022/09/03 05:45:45;;;;;;;0.40;0.40;;;;;;;;;;5121242;27;20212;-59
2022/09/03 05:48:33;;;;;;;0.33;0.33;;;;;;;;;;5117074;27;20196;-59
2022/09/03 05:51:20;;;;;;;0.40;0.40;;;;;;;;;;5123234;27;20260;-59
2022/09/03 05:54:08;;;;;;;0.30;0.30;;;;;;;;;;5119355;27;20210;-59
2022/09/03 05:56:55;;;;;;;0.40;0.40;;;;;;;;;;5123154;27;20210;-59
2022/09/03 05:59:43;;;;;;;0.43;0.43;;;;;;;;;;5119992;27;20246;-59
2022/09/03 06:02:31;;;;;;;0.30;0.30;;;;;;;;;;5119097;27;20206;-60
2022/09/03 06:05:18;;;;;;;0.30;0.30;;;;;;;;;;5116136;27;20246;-59
2022/09/03 06:08:05;;;;;;;0.30;0.30;;;;;;;;;;5117589;27;20394;-59
2022/09/03 06:10:58;;;;;;;0.20;0.20;;;;;;;;;;5120453;27;20202;-59
2022/09/03 06:13:46;;;;;;;0.30;0.30;;;;;;;;;;5122028;27;20706;-60
2022/09/03 06:16:37;;;;;;;0.40;0.40;;;;;;;;;;5116284;27;20202;-59
2022/09/03 06:19:24;;;;;;;0.30;0.30;;;;;;;;;;5123759;27;20194;-59
2022/09/03 06:22:11;;;;;;;0.10;0.10;;;;;;;;;;5119912;27;20611;-59
2022/09/03 06:24:58;;;;;;;0.40;0.40;;;;;;;;;;5122487;27;20292;-58
2022/09/03 06:27:46;;;;;;;0.20;0.20;;;;;;;;;;5119010;27;20194;-59
2022/09/03 06:30:34;;;;;;;0.20;0.20;;;;;;;;;;5118082;27;20283;-59
2022/09/03 06:33:23;;;;;;;0.30;0.30;;;;;;;;;;5122377;27;20239;-58
2022/09/03 06:36:13;;;;;;;0.17;0.17;;;;;;;;;;5124541;27;20312;-59
2022/09/03 06:39:00;;;;;;;0.50;0.50;;;;;;;;;;5121185;27;20575;-59
2022/09/03 06:41:50;;;;;;;0.30;0.30;;;;;;;;;;5122964;27;20217;-59
2022/09/03 06:44:37;;;;;;;0.30;0.30;;;;;;;;;;5119465;27;20217;-58
2022/09/03 06:47:24;;;;;;;0.30;0.30;;;;;;;;;;5123746;27;20284;-58
2022/09/03 06:50:12;;;;;;;0.37;0.37;;;;;;;;;;5119139;27;20244;-59
2022/09/03 06:52:59;;;;;;;0.33;0.33;;;;;;;;;;5115084;27;20207;-59
2022/09/03 06:55:53;;;;;;;0.27;0.27;;;;;;;;;;5117907;27;20211;-59
2022/09/03 06:58:42;;;;;;;0.30;0.30;;;;;;;;;;5125091;27;20225;-60
2022/09/03 07:01:31;;;;;;;0.20;0.20;;;;;;;;;;5120570;27;20214;-59
2022/09/03 07:04:18;;;;;;;0.30;0.30;;;;;;;;;;5116906;27;20199;-60
2022/09/03 07:07:12;;;;;;;0.33;0.33;;;;;;;;;;5119115;27;20257;-59
2022/09/03 07:09:59;;;;;;;0.37;0.37;;;;;;;;;;5116970;27;20204;-59
2022/09/03 07:12:46;;;;;;;0.30;0.30;;;;;;;;;;5116805;27;20208;-59
2022/09/03 07:15:33;;;;;;;0.20;0.20;;;;;;;;;;5121979;27;20200;-59
2022/09/03 07:18:20;;;;;;;0.25;0.25;;;;;;;;;;5123665;27;20285;-59
2022/09/03 07:21:10;;;;;;;0.20;0.20;;;;;;;;;;5122198;27;20212;-59
2022/09/03 07:23:58;;;;;;;0.20;0.20;;;;;;;;;;5118414;27;20202;-58
2022/09/03 07:26:47;;;;;;;0.30;0.30;;;;;;;;;;5122289;27;20204;-58
2022/09/03 07:29:34;;;;;;;0.30;0.30;;;;;;;;;;5113358;27;20216;-55
2022/09/03 07:32:21;;;;;;;0.30;0.30;;;;;;;;;;5114542;27;20209;-56
2022/09/03 07:35:08;;;;;;;0.20;0.20;;;;;;;;;;5116024;27;20205;-56
2022/09/03 07:37:55;;;;;;;0.20;0.20;;;;;;;;;;5117286;27;20689;-56
2022/09/03 07:40:43;;;;;;;0.20;0.20;;;;;;;;;;5114430;27;20209;-56
2022/09/03 07:43:34;;;;;;;0.08;0.08;;;;;;;;;;5119090;27;20582;-56
2022/09/03 07:46:24;;;;;;;0.30;0.30;;;;;;;;;;5117110;27;20233;-56
2022/09/03 07:49:11;;;;;;;0.10;0.10;;;;;;;;;;5120354;27;20214;-56
2022/09/03 07:51:58;;;;;;;0.15;0.15;;;;;;;;;;5116337;27;20210;-57
2022/09/03 07:54:44;;;;;;;0.38;0.38;;;;;;;;;;5120754;27;20205;-56
2022/09/03 07:57:33;;;;;;;0.20;0.20;;;;;;;;;;5114247;27;20209;-56
2022/09/03 08:00:20;;;;;;;0.20;0.20;;;;;;;;;;5119750;27;20694;-57
2022/09/03 08:03:07;;;;;;;0.30;0.25;;;;;;;;;;5116870;27;20240;-57
2022/09/03 08:05:54;;;;;;;0.20;0.20;;;;;;;;;;5119143;27;20221;-57
2022/09/03 08:08:43;;;;;;;0.20;0.20;;;;;;;;;;5113726;27;20270;-56
2022/09/03 08:11:31;;;;;;;0.20;0.20;;;;;;;;;;5119340;27;20212;-56
2022/09/03 08:14:19;;;;;;;0.05;0.05;;;;;;;;;;5122671;27;20201;-56
2022/09/03 08:17:06;;;;;;;0.22;0.22;;;;;;;;;;5116695;27;20586;-57
2022/09/03 08:19:55;;;;;;;0.60;0.30;;;;;;;;;;5116135;27;20197;-56
2022/09/03 08:22:42;;;;;;;0.20;0.20;;;;;;;;;;5115727;27;20198;-56
2022/09/03 08:25:29;;;;;;;0.20;0.20;;;;;;;;;;5117053;27;20583;-56
2022/09/03 08:28:16;;;;;;;0.13;0.13;;;;;;;;;;5117948;27;20224;-58
2022/09/03 08:31:11;;;;;;;0.30;0.30;;;;;;;;;;5115939;27;20266;-59
2022/09/03 08:34:00;;;;;;;0.10;0.10;;;;;;;;;;5121962;27;20365;-59
2022/09/03 08:36:49;;;;;;;0.20;0.20;;;;;;;;;;5120454;27;20201;-59
2022/09/03 08:39:36;;;;;;;0.20;0.20;;;;;;;;;;5124036;27;20252;-59
2022/09/03 08:42:32;;;;;;;0.15;0.15;;;;;;;;;;5117440;27;20200;-58
2022/09/03 08:45:21;;;;;;;0.30;0.30;;;;;;;;;;5121100;28;20240;-58
2022/09/03 08:48:16;;;;;;;0.20;0.20;;;;;;;;;;5117038;27;20206;-58
2022/09/03 08:51:04;;;;;;;0.20;0.20;;;;;;;;;;5123989;27;20289;-58
2022/09/03 08:53:54;;;;;;;0.20;0.20;;;;;;;;;;5119307;27;20224;-57
2022/09/03 08:56:43;;;;;;;0.22;0.22;;;;;;;;;;5121151;27;20215;-58
2022/09/03 08:59:31;;;;;;;0.20;0.20;;;;;;;;;;5128426;27;20229;-58
2022/09/03 09:02:26;;;;;;;0.22;0.22;;;;;;;;;;5121489;27;20288;-58
2022/09/03 09:05:18;;;;;;;0.20;0.20;;;;;;;;;;5121079;27;20570;-58
2022/09/03 09:08:13;;;;;;;0.47;0.30;;;;;;;;;;5120143;27;20198;-58
2022/09/03 09:11:08;;;;;;;0.17;0.17;;;;;;;;;;5121469;27;20208;-58
2022/09/03 09:14:02;;;;;;;0.13;0.13;;;;;;;;;;5117606;27;20201;-57
2022/09/03 09:17:01;;;;;;;0.30;0.30;;;;;;;;;;5120633;27;20209;-58
2022/09/03 09:19:57;;;;;;;0.20;0.20;;;;;;;;;;5118273;27;20229;-58
2022/09/03 09:22:49;;;;;;;0.30;0.30;;;;;;;;;;5122438;27;20210;-57
2022/09/03 09:25:47;;;;;;;0.30;0.30;;;;;;;;;;5120323;27;20212;-58
2022/09/03 09:28:36;;;;;;;0.10;0.10;;;;;;;;;;5123420;27;20747;-57
2022/09/03 09:31:23;;;;;;;0.30;0.30;;;;;;;;;;5120719;27;20196;-57
2022/09/03 09:34:11;;;;;;;0.98;0.20;;;;;;;;;;5118084;27;20233;-58
2022/09/03 09:36:58;;;;;;;0.32;0.15;;;;;;;;;;5118313;27;20325;-58
2022/09/03 09:39:56;;;;;;;0.25;0.25;;;;;;;;;;5120649;27;20288;-57
2022/09/03 09:42:43;;;;;;;0.75;0.30;;;;;;;;;;5119254;27;20259;-57
2022/09/03 09:45:31;;;;;;;0.20;0.20;;;;;;;;;;5116856;27;20202;-58
2022/09/03 09:48:25;;;;;;;0.20;0.20;;;;;;;;;;5121415;27;20219;-57
2022/09/03 09:51:13;;;;;;;0.30;0.30;;;;;;;;;;5115661;27;20695;-57
2022/09/03 09:54:02;;;;;;;0.30;0.30;;;;;;;;;;5115049;27;20213;-57
2022/09/03 09:56:59;;;;;;;0.20;0.20;;;;;;;;;;5121301;27;20649;-58
2022/09/03 09:59:47;;;;;;;0.40;0.40;;;;;;;;;;5118653;27;20225;-58
2022/09/03 10:02:36;;;;;;;0.30;0.30;;;;;;;;;;5118488;27;20239;-58
2022/09/03 10:05:26;;;;;;;0.32;0.32;;;;;;;;;;5120192;27;20238;-59
2022/09/03 10:08:20;;;;;;;0.30;0.30;;;;;;;;;;5118488;27;20576;-58
2022/09/03 10:11:07;;;;;;;0.40;0.40;;;;;;;;;;5118045;27;20216;-58
2022/09/03 10:13:56;;;;;;;0.57;0.57;;;;;;;;;;5118864;27;20232;-59
2022/09/03 10:16:47;;;;;;;0.50;0.50;;;;;;;;;;5119312;27;20203;-58
2022/09/03 10:20:25;;;;;;;0.45;0.45;;;;;;;;;;5117723;27;20229;-59
2022/09/03 10:22:55;;;;;;;0.45;0.45;;;;;;;;;;5119461;27;20284;-58
2022/09/03 10:26:03;;;;;;;0.50;0.50;;;;;;;;;;5115532;27;20606;-60
2022/09/03 10:28:52;;;;;;;0.50;0.50;;;;;;;;;;5116372;27;20250;-59
2022/09/03 10:31:54;;;;;;;0.50;0.50;;;;;;;;;;5114718;27;20230;-58
2022/09/03 10:34:47;;;;;;;0.40;0.40;;;;;;;;;;5117520;27;20238;-58
2022/09/03 10:37:39;;;;;;;0.35;0.35;;;;;;;;;;5117902;27;20215;-59
2022/09/03 10:40:34;;;;;;;0.57;0.57;;;;;;;;;;5115566;27;20607;-59
2022/09/03 10:43:36;;;;;;;0.50;0.50;;;;;;;;;;5119350;27;20287;-58
2022/09/03 10:46:27;;;;;;;0.43;0.43;;;;;;;;;;5118840;27;20216;-58
2022/09/03 10:49:31;;;;;;;0.63;0.50;;;;;;;;;;5119781;27;20206;-59
2022/09/03 10:52:27;;;;;;;0.38;0.38;;;;;;;;;;5117367;27;20209;-59
2022/09/03 10:55:21;;;;;;;0.43;0.43;;;;;;;;;;5122235;27;20302;-58
2022/09/03 10:58:22;;;;;;;0.32;0.32;;;;;;;;;;5119633;27;20296;-58
2022/09/03 11:01:17;;;;;;;0.50;0.50;;;;;;;;;;5117987;27;20210;-58
2022/09/03 11:04:28;;;;;;;0.63;0.50;;;;;;;;;;5120636;27;20214;-58
2022/09/03 11:07:20;;;;;;;0.40;0.40;;;;;;;;;;5118284;27;20257;-58
2022/09/03 11:10:15;;;;;;;0.40;0.40;;;;;;;;;;5113324;27;20601;-58
2022/09/03 11:13:07;;;;;;;0.40;0.40;;;;;;;;;;5114349;27;20209;-58
2022/09/03 11:15:58;;;;;;;0.30;0.30;;;;;;;;;;5117870;27;20204;-58
2022/09/03 11:18:49;;;;;;;0.38;0.38;;;;;;;;;;5115813;27;20263;-59
2022/09/03 11:21:40;;;;;;;0.60;0.60;;;;;;;;;;5117093;27;20207;-59
2022/09/03 11:24:31;;;;;;;0.45;0.40;;;;;;;;;;5119286;27;20220;-58
2022/09/03 11:27:32;;;;;;;0.60;0.60;;;;;;;;;;5120880;27;20206;-59
2022/09/03 11:30:24;;;;;;;0.30;0.30;;;;;;;;;;5118186;27;20687;-59
2022/09/03 11:33:11;;;;;;;0.30;0.30;;;;;;;;;;5122169;27;20637;-58
2022/09/03 11:36:00;;;;;;;0.38;0.38;;;;;;;;;;5123046;27;20200;-58
2022/09/03 11:38:48;;;;;;;0.40;0.40;;;;;;;;;;5122157;27;20282;-58
2022/09/03 11:41:35;;;;;;;0.40;0.40;;;;;;;;;;5124320;27;20205;-59
2022/09/03 11:44:23;;;;;;;0.30;0.30;;;;;;;;;;5122352;27;20208;-58
2022/09/03 11:47:16;;;;;;;0.38;0.38;;;;;;;;;;5119891;27;20202;-58
2022/09/03 11:50:08;;;;;;;0.57;0.57;;;;;;;;;;5117988;27;20237;-58
2022/09/03 11:53:08;;;;;;;0.38;0.38;;;;;;;;;;5118503;27;20202;-59
2022/09/03 11:56:00;;;;;;;0.60;0.60;;;;;;;;;;5115810;27;20208;-59
2022/09/03 11:58:58;;;;;;;0.40;0.40;;;;;;;;;;5119669;27;20208;-59
2022/09/03 12:01:52;;;;;;;0.20;0.20;;;;;;;;;;5116092;27;20198;-59
2022/09/03 12:04:46;;;;;;;0.30;0.30;;;;;;;;;;5118329;27;20212;-58
2022/09/03 12:07:56;;;;;;;0.90;0.30;;;;;;;;;;5126400;27;20212;-58
2022/09/03 12:10:53;;;;;;;0.40;0.40;;;;;;;;;;5117394;27;20641;-58
2022/09/03 12:13:51;;;;;;;0.40;0.40;;;;;;;;;;5124005;27;20209;-58
2022/09/03 12:17:07;;;;;;;0.30;0.30;;;;;;;;;;5116965;27;20574;-59
2022/09/03 12:19:56;;;;;;;0.52;0.30;;;;;;;;;;5119881;27;20217;-58
2022/09/03 12:22:43;;;;;;;0.30;0.30;;;;;;;;;;5121645;27;20202;-58
2022/09/03 12:25:32;;;;;;;0.30;0.30;;;;;;;;;;5119326;27;20205;-58
2022/09/03 12:28:22;;;;;;;0.40;0.40;;;;;;;;;;5120285;27;20680;-58
2022/09/03 12:31:24;;;;;;;0.30;0.30;;;;;;;;;;5119855;27;20202;-58
2022/09/03 12:34:13;;;;;;;0.32;0.32;;;;;;;;;;5106267;27;20230;-59
2022/09/03 12:37:01;;;;;;;0.40;0.40;;;;;;;;;;5097931;28;20206;-58
2022/09/03 12:39:51;;;;;;;0.32;0.32;;;;;;;;;;5099867;28;20226;-59
2022/09/03 12:42:38;;;;;;;0.43;0.43;;;;;;;;;;5094314;28;20214;-58
2022/09/03 12:45:27;;;;;;;0.30;0.30;;;;;;;;;;5097690;28;20276;-58
2022/09/03 12:48:16;;;;;;;0.40;0.40;;;;;;;;;;5100056;28;20217;-58
2022/09/03 12:51:04;;;;;;;0.30;0.30;;;;;;;;;;5091697;28;20209;-59
2022/09/03 12:53:53;;;;;;;0.20;0.20;;;;;;;;;;5098063;28;20198;-58
2022/09/03 12:56:41;;;;;;;0.40;0.40;;;;;;;;;;5095213;28;20202;-58
2022/09/03 12:59:33;;;;;;;0.43;0.43;;;;;;;;;;5101354;28;20282;-59
2022/09/03 13:02:26;;;;;;;0.20;0.20;;;;;;;;;;5099667;28;20363;-58
2022/09/03 13:05:22;;;;;;;0.65;0.20;;;;;;;;;;5098359;28;20238;-58
2022/09/03 13:08:13;;;;;;;0.40;0.40;;;;;;;;;;5100089;28;20214;-58
2022/09/03 13:11:04;;;;;;;0.20;0.20;;;;;;;;;;5101534;28;20640;-58
2022/09/03 13:13:55;;;;;;;0.20;0.20;;;;;;;;;;5100011;28;20645;-58
2022/09/03 13:17:19;;;;;;;0.35;0.35;;;;;;;;;;5095815;28;20288;-58
2022/09/03 13:20:21;;;;;;;0.22;0.20;;;;;;;;;;5101946;28;20234;-58
2022/09/03 13:23:46;;;;;;;0.30;0.30;;;;;;;;;;5100685;28;20961;-59
2022/09/03 13:26:43;;;;;;;0.30;0.30;;;;;;;;;;5099041;28;20209;-59
2022/09/03 13:29:53;;;;;;;0.28;0.28;;;;;;;;;;5095758;28;20242;-58
2022/09/03 13:32:50;;;;;;;0.32;0.32;;;;;;;;;;5094180;28;20238;-58
2022/09/03 13:35:45;;;;;;;0.20;0.20;;;;;;;;;;5120132;27;20677;-57
2022/09/03 13:38:39;;;;;;;0.30;0.30;;;;;;;;;;5119586;27;20285;-58
2022/09/03 13:41:37;;;;;;;0.30;0.30;;;;;;;;;;5121144;27;20299;-58
2022/09/03 13:44:36;;;;;;;0.30;0.30;;;;;;;;;;5115527;27;20572;-58
2022/09/03 13:47:29;;;;;;;0.30;0.30;;;;;;;;;;5122957;27;20241;-58
2022/09/03 13:50:22;;;;;;;0.30;0.30;;;;;;;;;;5124258;27;20254;-58
2022/09/03 13:53:17;;;;;;;0.20;0.20;;;;;;;;;;5127659;27;20640;-59
2022/09/03 13:56:16;;;;;;;0.30;0.30;;;;;;;;;;5120519;27;20239;-58
2022/09/03 13:59:08;;;;;;;0.20;0.20;;;;;;;;;;5119568;27;20210;-58
2022/09/03 14:02:08;;;;;;;0.20;0.20;;;;;;;;;;5117113;27;20201;-58
2022/09/03 14:05:05;;;;;;;0.20;0.20;;;;;;;;;;5124558;27;20266;-59
2022/09/03 14:08:06;;;;;;;0.43;0.30;;;;;;;;;;5124213;27;20201;-58
2022/09/03 14:11:01;;;;;;;0.45;0.45;;;;;;;;;;5120796;27;20193;-58
2022/09/03 14:14:02;;;;;;;0.20;0.20;;;;;;;;;;5119053;27;20622;-59
2022/09/03 14:16:56;;;;;;;0.30;0.30;;;;;;;;;;5121638;27;20207;-58
2022/09/03 14:19:49;;;;;;;0.20;0.20;;;;;;;;;;5118680;27;20247;-58
2022/09/03 14:22:48;;;;;;;0.30;0.30;;;;;;;;;;5120244;27;20344;-58
2022/09/03 14:25:35;;;;;;;0.40;0.40;;;;;;;;;;5116461;27;20862;-59
2022/09/03 14:28:31;;;;;;;0.35;0.35;;;;;;;;;;5118530;27;20277;-58
2022/09/03 14:31:28;;;;;;;0.30;0.20;;;;;;;;;;5118672;27;20264;-58
2022/09/03 14:34:24;;;;;;;0.20;0.20;;;;;;;;;;5120782;27;20317;-61
2022/09/03 14:37:24;;;;;;;0.32;0.32;;;;;;;;;;5116579;27;20206;-59
2022/09/03 14:40:16;;;;;;;0.40;0.40;;;;;;;;;;5120347;27;20221;-58
2022/09/03 14:43:18;;;;;;;0.20;0.20;;;;;;;;;;5122576;27;20216;-58
2022/09/03 14:46:23;;;;;;;0.20;0.20;;;;;;;;;;5118582;27;20207;-59
2022/09/03 14:49:24;;;;;;;0.20;0.20;;;;;;;;;;5107451;27;20216;-58
2022/09/03 14:52:29;;;;;;;0.38;0.38;;;;;;;;;;5120803;27;20222;-59
2022/09/03 14:55:29;;;;;;;0.20;0.20;;;;;;;;;;5108264;27;20207;-59
2022/09/03 14:58:28;;;;;;;0.20;0.20;;;;;;;;;;5119732;27;20207;-59
2022/09/03 15:01:24;;;;;;;0.37;0.37;;;;;;;;;;5116679;27;20306;-59
2022/09/03 15:04:45;;;;;;;0.20;0.20;;;;;;;;;;5119432;27;20260;-58
2022/09/03 15:07:36;;;;;;;0.20;0.20;;;;;;;;;;5119758;27;20216;-58
2022/09/03 15:10:35;;;;;;;0.30;0.30;;;;;;;;;;5117131;27;20199;-58
2022/09/03 15:13:24;;;;;;;0.20;0.20;;;;;;;;;;5116782;27;20665;-58
2022/09/03 15:16:27;;;;;;;0.43;0.37;;;;;;;;;;5123076;27;20214;-59
2022/09/03 15:19:28;;;;;;;0.30;0.30;;;;;;;;;;5118048;27;20199;-58
2022/09/03 15:22:29;;;;;;;0.30;0.30;;;;;;;;;;5115458;27;20209;-59
2022/09/03 15:25:22;;;;;;;0.20;0.20;;;;;;;;;;5119653;27;20217;-59
2022/09/03 15:28:17;;;;;;;0.30;0.30;;;;;;;;;;5117381;27;20223;-58
2022/09/03 15:31:13;;;;;;;0.20;0.20;;;;;;;;;;5119361;27;20221;-58
2022/09/03 15:34:10;;;;;;;0.43;0.43;;;;;;;;;;5125137;27;20361;-58
2022/09/03 15:36:59;;;;;;;0.30;0.30;;;;;;;;;;5119101;27;20253;-58
2022/09/03 15:39:54;;;;;;;0.20;0.20;;;;;;;;;;5117699;27;20219;-58
2022/09/03 15:42:44;;;;;;;0.20;0.20;;;;;;;;;;5122695;27;20235;-58
2022/09/03 15:45:36;;;;;;;0.20;0.20;;;;;;;;;;5118641;27;20204;-58
2022/09/03 15:48:32;;;;;;;0.30;0.30;;;;;;;;;;5121526;27;20237;-58
2022/09/03 15:51:26;;;;;;;0.20;0.20;;;;;;;;;;5121761;27;20673;-58
2022/09/03 15:54:19;;;;;;;0.40;0.40;;;;;;;;;;5117224;27;20234;-58
2022/09/03 15:57:11;;;;;;;0.90;0.27;;;;;;;;;;5118672;27;20678;-58
2022/09/03 16:00:02;;;;;;;0.20;0.20;;;;;;;;;;5113029;27;20216;-58
2022/09/03 16:02:58;;;;;;;0.20;0.20;;;;;;;;;;5121142;27;20293;-58
2022/09/03 16:05:49;;;;;;;0.30;0.30;;;;;;;;;;5113242;27;20373;-58
2022/09/03 16:08:43;;;;;;;0.30;0.30;;;;;;;;;;5121395;27;20588;-59
2022/09/03 16:11:37;;;;;;;0.73;0.30;;;;;;;;;;5113228;27;20662;-58
2022/09/03 16:14:30;;;;;;;0.17;0.17;;;;;;;;;;5121160;27;20231;-59
2022/09/03 16:17:25;;;;;;;0.20;0.20;;;;;;;;;;5118646;27;20208;-58
2022/09/03 16:20:20;;;;;;;0.20;0.20;;;;;;;;;;5121113;27;20718;-58
2022/09/03 16:23:12;;;;;;;0.30;0.30;;;;;;;;;;5113999;27;20215;-58
2022/09/03 16:26:06;;;;;;;0.40;0.40;;;;;;;;;;5116987;27;20221;-58
2022/09/03 16:28:57;;;;;;;0.20;0.20;;;;;;;;;;5117831;27;20234;-59
2022/09/03 16:32:01;;;;;;;0.27;0.27;;;;;;;;;;5115234;27;20215;-58
2022/09/03 16:35:03;;;;;;;0.27;0.27;;;;;;;;;;5096226;28;20207;-58
2022/09/03 16:38:06;;;;;;;0.40;0.40;;;;;;;;;;5097472;28;20224;-58
2022/09/03 16:40:58;;;;;;;0.10;0.10;;;;;;;;;;5096654;28;20234;-59
2022/09/03 16:44:00;;;;;;;0.40;0.40;;;;;;;;;;5104231;28;20204;-59
2022/09/03 16:46:54;;;;;;;0.80;0.80;;;;;;;;;;5099421;28;20203;-59
2022/09/03 16:49:55;;;;;;;0.40;0.40;;;;;;;;;;5097303;28;20609;-59
2022/09/03 16:52:55;;;;;;;0.60;0.60;;;;;;;;;;5096846;28;20290;-59
2022/09/03 16:56:07;;;;;;;0.90;0.90;;;;;;;;;;5098668;28;20212;-58
2022/09/03 16:59:05;;;;;;;1.13;1.13;;;;;;;;;;5095043;28;20276;-59
2022/09/03 17:02:06;;;;;;;1.13;1.13;;;;;;;;;;5097828;28;20222;-59
2022/09/03 17:05:11;;;;;;;0.90;0.90;;;;;;;;;;5095213;28;20214;-58
2022/09/03 17:08:11;;;;;;;1.10;1.10;;;;;;;;;;5097007;28;20210;-58
2022/09/03 17:11:09;;;;;;;0.57;0.57;;;;;;;;;;5098057;28;20243;-59
2022/09/03 17:14:11;;;;;;;0.87;0.87;;;;;;;;;;5104006;28;20226;-58